Consulta los datos en tiempo real de la estación municipal de Seva
| Hora UTC | 21:35 |
|---|---|
| Temperatura | 11.2 ºC |
| Suelo 15 cm | 10.1 ºC |
| Humedad | 93.0 % |
| Presión | 1013.6 hPa |
| Pluja | 11.1 mm |
| Velocidad viento | 3.1 km/h |
| Dirección viento | SSW |
| Radiación solar | 0.1 W/m² |
| Temperatura (ºC) | Humedad (%) | Presión (hPa) | Velocidad viento (km/h) | Precipitación (mm) | Radiación solar (W/m²) | ||||||||||||||
|---|---|---|---|---|---|---|---|---|---|---|---|---|---|---|---|---|---|---|---|
| Hora UTC | Aire | Suelo 15 cm | Humedad | Presión | Vel. | Dir. | Vel. Max | Dir. | Intent. máx 5 min. | Rad. Sol. | |||||||||
| 00:05 | 11.8 | 11.5 | 96.3 | 1016.3 | 0.8 | WSW | 0.8 | SW | 0.0 | 0.1 | |||||||||
| 00:10 | 11.8 | 11.4 | 96.3 | 1016.2 | 0.4 | SSW | 2.5 | S | 0.0 | 0.1 | |||||||||
| 00:15 | 11.7 | 11.2 | 96.3 | 1016.2 | 1.2 | SSW | 2.5 | SSW | 0.0 | 0.1 | |||||||||
| 00:20 | 11.7 | 11.2 | 96.4 | 1016.2 | 0.7 | SSW | 2.8 | SW | 0.0 | 0.1 | |||||||||
| 00:25 | 11.8 | 11.3 | 96.4 | 1016.2 | 0.2 | SW | 1.8 | WSW | 0.0 | 0.1 | |||||||||
| 00:30 | 11.8 | 11.4 | 96.3 | 1016.2 | 2.9 | WSW | 4.2 | WSW | 0.0 | 0.1 | |||||||||
| 00:35 | 11.8 | 11.4 | 96.2 | 1016.2 | 2.5 | WSW | 4.2 | WSW | 0.0 | 0.0 | |||||||||
| 00:40 | 11.7 | 11.3 | 96.1 | 1016.3 | 2.7 | SSW | 4.6 | SW | 0.0 | 0.0 | |||||||||
| 00:45 | 11.8 | 11.3 | 96.1 | 1016.3 | 1.6 | SSW | 3.9 | S | 0.0 | 0.1 | |||||||||
| 00:50 | 11.8 | 11.3 | 96.1 | 1016.2 | 0.6 | SW | 2.1 | WSW | 0.0 | 0.1 | |||||||||
| 00:55 | 11.8 | 11.4 | 96.2 | 1016.2 | 1.4 | SW | 2.8 | SW | 0.0 | 0.1 | |||||||||
| 01:00 | 11.8 | 11.4 | 96.1 | 1016.2 | 1.1 | SW | 2.5 | WSW | 0.0 | 0.0 | |||||||||
| 01:05 | 11.8 | 11.4 | 96.1 | 1016.1 | 0.2 | E | 2.5 | E | 0.0 | 0.0 | |||||||||
| 01:10 | 11.7 | 11.2 | 95.9 | 1015.9 | 2.8 | E | 4.6 | E | 0.0 | 0.1 | |||||||||
| 01:15 | 11.7 | 11.0 | 95.8 | 1015.8 | 0.9 | ENE | 3.2 | ESE | 0.0 | 0.1 | |||||||||
| 01:20 | 11.6 | 10.7 | 95.8 | 1015.8 | 0.0 | NNE | 0.0 | NE | 0.0 | 0.1 | |||||||||
| 01:25 | 11.6 | 10.6 | 96.0 | 1015.9 | 1.1 | WSW | 2.8 | WSW | 0.0 | 0.1 | |||||||||
| 01:30 | 11.6 | 10.7 | 96.2 | 1015.9 | 2.0 | SSW | 4.2 | SSE | 0.0 | 0.1 | |||||||||
| 01:35 | 11.6 | 10.7 | 96.3 | 1015.9 | 1.3 | S | 3.5 | S | 0.0 | 0.0 | |||||||||
| 01:40 | 11.6 | 10.8 | 96.4 | 1015.8 | 2.9 | W | 4.9 | WNW | 0.0 | 0.1 | |||||||||
| 01:45 | 11.6 | 10.9 | 96.4 | 1015.9 | 1.4 | SSW | 3.5 | S | 0.0 | 0.1 | |||||||||
| 01:50 | 11.6 | 11.0 | 96.4 | 1015.8 | 1.1 | SSE | 2.8 | SSE | 0.0 | 0.0 | |||||||||
| 01:55 | 11.6 | 11.0 | 96.5 | 1015.8 | 0.0 | SW | 1.1 | SW | 0.0 | 0.1 | |||||||||
| 02:00 | 11.7 | 11.0 | 96.5 | 1015.7 | 0.1 | WSW | 1.4 | WSW | 0.0 | 0.1 | |||||||||
| 02:05 | 11.7 | 11.1 | 96.5 | 1015.7 | 1.4 | WSW | 2.8 | W | 0.0 | 0.0 | |||||||||
| 02:10 | 11.8 | 11.2 | 96.5 | 1015.6 | 2.0 | WNW | 2.8 | NNW | 0.0 | 0.1 | |||||||||
| 02:15 | 11.7 | 11.2 | 96.3 | 1015.6 | 1.8 | NNW | 3.2 | NNW | 0.0 | 0.0 | |||||||||
| 02:20 | 11.7 | 11.2 | 96.3 | 1015.6 | 1.2 | N | 2.5 | N | 0.0 | 0.1 | |||||||||
| 02:25 | 11.7 | 11.2 | 96.4 | 1015.6 | 0.1 | ENE | 1.4 | ENE | 0.0 | 0.1 | |||||||||
| 02:30 | 11.7 | 11.2 | 96.4 | 1015.6 | 1.3 | SSE | 3.5 | SE | 0.0 | 0.1 | |||||||||
| 02:35 | 11.7 | 11.2 | 96.3 | 1015.6 | 3.0 | ESE | 3.9 | SE | 0.0 | 0.1 | |||||||||
| 02:40 | 11.7 | 11.2 | 96.2 | 1015.5 | 2.9 | ESE | 4.2 | ESE | 0.0 | 0.1 | |||||||||
| 02:45 | 11.8 | 11.3 | 96.1 | 1015.4 | 2.9 | E | 4.6 | E | 0.0 | 0.1 | |||||||||
| 02:50 | 11.8 | 11.3 | 95.9 | 1015.4 | 2.5 | ESE | 4.9 | E | 0.0 | 0.0 | |||||||||
| 02:55 | 11.9 | 11.3 | 95.8 | 1015.4 | 0.6 | SW | 2.5 | S | 0.0 | 0.0 | |||||||||
| 03:00 | 12.0 | 11.4 | 95.6 | 1015.4 | 1.5 | WSW | 3.2 | WSW | 0.0 | 0.1 | |||||||||
| 03:05 | 12.0 | 11.5 | 95.3 | 1015.5 | 1.9 | WSW | 4.6 | WSW | 0.0 | 0.0 | |||||||||
| 03:10 | 12.0 | 11.5 | 95.0 | 1015.5 | 0.9 | WSW | 2.5 | WSW | 0.0 | 0.1 | |||||||||
| 03:15 | 12.0 | 11.5 | 94.9 | 1015.5 | 1.0 | SSW | 4.2 | SSW | 0.0 | 0.1 | |||||||||
| 03:20 | 12.1 | 11.6 | 94.8 | 1015.6 | 1.0 | S | 3.5 | SSW | 0.0 | 0.1 | |||||||||
| 03:25 | 12.1 | 11.6 | 94.7 | 1015.5 | 2.3 | ESE | 4.6 | E | 0.0 | 0.1 | |||||||||
| 03:30 | 12.1 | 11.6 | 94.6 | 1015.3 | 4.2 | E | 7.8 | ESE | 0.0 | 0.0 | |||||||||
| 03:35 | 12.2 | 11.6 | 94.4 | 1015.3 | 1.7 | ESE | 4.9 | ESE | 0.0 | 0.1 | |||||||||
| 03:40 | 12.2 | 11.6 | 94.2 | 1015.3 | 0.0 | NNE | 0.0 | ESE | 0.0 | 0.1 | |||||||||
| 03:45 | 12.3 | 11.6 | 94.2 | 1015.3 | 0.3 | NNW | 1.8 | NNW | 0.0 | 0.1 | |||||||||
| 03:50 | 12.2 | 11.6 | 94.1 | 1015.2 | 0.1 | NNW | 1.4 | NNW | 0.0 | 0.0 | |||||||||
| 03:55 | 12.2 | 11.6 | 94.3 | 1015.2 | 1.2 | W | 3.2 | W | 0.0 | 0.1 | |||||||||
| 04:00 | 12.2 | 11.6 | 94.4 | 1015.3 | 4.1 | WSW | 6.7 | WSW | 0.0 | 0.1 | |||||||||
| 04:05 | 12.1 | 11.4 | 94.5 | 1015.2 | 4.2 | WSW | 6.0 | SW | 0.0 | 0.0 | |||||||||
| 04:10 | 11.9 | 11.2 | 94.8 | 1015.2 | 1.4 | SW | 5.6 | WSW | 0.0 | 0.0 | |||||||||
| 04:15 | 11.8 | 10.9 | 95.2 | 1015.2 | 1.6 | SSW | 3.5 | SSE | 0.0 | 0.1 | |||||||||
| 04:20 | 11.7 | 10.7 | 95.5 | 1015.2 | 1.1 | S | 3.2 | SSE | 0.0 | 0.1 | |||||||||
| 04:25 | 11.6 | 10.6 | 95.8 | 1015.2 | 0.1 | N | 1.4 | N | 0.0 | 0.1 | |||||||||
| 04:30 | 11.6 | 10.7 | 96.0 | 1015.1 | 0.1 | NNW | 1.4 | NNW | 0.0 | 0.1 | |||||||||
| 04:35 | 11.6 | 10.7 | 96.1 | 1015.1 | 0.6 | E | 2.1 | E | 0.0 | 0.3 | |||||||||
| 04:40 | 11.6 | 10.7 | 96.3 | 1015.1 | 0.6 | E | 2.1 | E | 0.0 | 0.8 | |||||||||
| 04:45 | 11.5 | 10.6 | 96.3 | 1015.1 | 0.5 | NW | 2.8 | NW | 0.0 | 1.8 | |||||||||
| 04:50 | 11.5 | 10.6 | 96.5 | 1015.1 | 2.7 | WNW | 3.2 | NW | 0.0 | 2.4 | |||||||||
| 04:55 | 11.5 | 10.7 | 96.7 | 1015.1 | 0.6 | WNW | 2.1 | WNW | 0.0 | 2.9 | |||||||||
| 05:00 | 11.5 | 10.8 | 96.9 | 1015.1 | 0.9 | WNW | 1.8 | WNW | 0.0 | 4.4 | |||||||||
| 05:05 | 11.5 | 10.9 | 96.9 | 1015.2 | 0.4 | SSE | 2.1 | SSE | 0.0 | 5.0 | |||||||||
| 05:10 | 11.5 | 10.9 | 96.9 | 1015.2 | 2.0 | SE | 3.2 | SE | 0.0 | 5.4 | |||||||||
| 05:15 | 11.6 | 11.0 | 96.9 | 1015.2 | 0.7 | SSE | 2.8 | SE | 0.0 | 6.8 | |||||||||
| 05:20 | 11.6 | 11.1 | 96.9 | 1015.1 | 1.2 | ESE | 2.8 | ESE | 0.0 | 10.6 | |||||||||
| 05:25 | 11.7 | 11.1 | 96.9 | 1015.1 | 2.4 | ESE | 3.2 | SE | 0.0 | 15.0 | |||||||||
| 05:30 | 11.7 | 11.2 | 96.8 | 1015.1 | 2.3 | ESE | 3.2 | ESE | 0.0 | 18.2 | |||||||||
| 05:35 | 11.8 | 11.3 | 96.7 | 1015.2 | 0.0 | ESE | 1.1 | ESE | 0.0 | 18.0 | |||||||||
| 05:40 | 11.8 | 11.5 | 96.6 | 1015.2 | 0.0 | NNE | 0.0 | E | 0.0 | 29.1 | |||||||||
| 05:45 | 11.9 | 11.7 | 96.4 | 1015.2 | 0.0 | NNE | 0.0 | E | 0.0 | 33.7 | |||||||||
| 05:50 | 12.0 | 11.9 | 96.2 | 1015.2 | 0.0 | WSW | 1.1 | WSW | 0.0 | 38.0 | |||||||||
| 05:55 | 12.1 | 12.1 | 95.5 | 1015.2 | 0.3 | WSW | 1.8 | W | 0.0 | 42.0 | |||||||||
| 06:00 | 12.3 | 12.3 | 94.7 | 1015.1 | 0.5 | W | 1.8 | W | 0.0 | 52.5 | |||||||||
| 06:05 | 12.4 | 12.5 | 94.1 | 1015.1 | 0.1 | SW | 1.4 | WSW | 0.0 | 60.0 | |||||||||
| 06:10 | 12.4 | 12.8 | 93.1 | 1015.2 | 0.0 | NW | 1.8 | NW | 0.0 | 66.5 | |||||||||
| 06:15 | 12.6 | 13.0 | 92.6 | 1015.2 | 1.6 | NNW | 3.2 | NNW | 0.0 | 74.6 | |||||||||
| 06:20 | 12.8 | 13.2 | 92.9 | 1015.2 | 0.6 | NNW | 2.5 | N | 0.0 | 95.1 | |||||||||
| 06:25 | 12.8 | 13.4 | 92.7 | 1015.3 | 4.6 | NNW | 6.4 | NNW | 0.0 | 110.2 | |||||||||
| 06:30 | 12.7 | 13.6 | 93.1 | 1015.3 | 3.9 | NW | 6.0 | N | 0.0 | 122.3 | |||||||||
| 06:35 | 12.7 | 13.7 | 93.3 | 1015.3 | 5.5 | NNW | 7.8 | NNW | 0.0 | 89.3 | |||||||||
| 06:40 | 12.6 | 13.6 | 93.7 | 1015.3 | 6.5 | NNW | 8.5 | NNW | 0.0 | 134.8 | |||||||||
| 06:45 | 12.7 | 13.8 | 93.9 | 1015.3 | 4.9 | N | 7.8 | N | 0.0 | 154.2 | |||||||||
| 06:50 | 13.0 | 14.6 | 93.3 | 1015.3 | 6.6 | N | 10.2 | NNW | 0.0 | 243.9 | |||||||||
| 06:55 | 13.2 | 15.4 | 91.1 | 1015.3 | 7.0 | NNW | 9.2 | N | 0.0 | 175.3 | |||||||||
| 07:00 | 13.4 | 15.3 | 90.1 | 1015.3 | 5.3 | N | 8.8 | N | 0.0 | 175.5 | |||||||||
| 07:05 | 13.6 | 15.5 | 89.3 | 1015.4 | 5.1 | NNE | 9.2 | NNW | 0.0 | 204.7 | |||||||||
| 07:10 | 13.8 | 15.7 | 87.7 | 1015.4 | 3.5 | NNE | 6.7 | NNE | 0.0 | 235.3 | |||||||||
| 07:15 | 14.1 | 16.8 | 85.7 | 1015.3 | 3.2 | N | 5.6 | NNE | 0.0 | 338.6 | |||||||||
| 07:20 | 14.5 | 17.6 | 83.8 | 1015.3 | 6.1 | E | 10.2 | ENE | 0.0 | 276.5 | |||||||||
| 07:25 | 14.9 | 18.4 | 82.6 | 1015.2 | 4.2 | ENE | 8.5 | ENE | 0.0 | 505.5 | |||||||||
| 07:30 | 15.6 | 21.0 | 78.5 | 1015.2 | 4.4 | E | 8.8 | E | 0.0 | 578.3 | |||||||||
| 07:35 | 16.3 | 22.5 | 75.8 | 1015.2 | 2.6 | NE | 6.4 | E | 0.0 | 491.5 | |||||||||
| 07:40 | 16.9 | 23.7 | 71.4 | 1015.2 | 3.6 | NNE | 6.4 | NE | 0.0 | 469.3 | |||||||||
| 07:45 | 16.7 | 23.6 | 71.2 | 1015.1 | 3.0 | NNW | 6.4 | N | 0.0 | 477.6 | |||||||||
| 07:50 | 17.0 | 23.9 | 71.7 | 1015.1 | 3.1 | N | 6.4 | NNW | 0.0 | 487.3 | |||||||||
| 07:55 | 17.1 | 24.5 | 71.9 | 1015.1 | 5.1 | N | 8.8 | NNW | 0.0 | 519.7 | |||||||||
| 08:00 | 17.0 | 24.7 | 72.5 | 1015.0 | 6.7 | NNW | 11.3 | NNW | 0.0 | 573.7 | |||||||||
| 08:05 | 16.8 | 24.4 | 73.7 | 1015.0 | 5.1 | N | 10.6 | N | 0.0 | 370.6 | |||||||||
| 08:10 | 16.8 | 22.7 | 73.9 | 1015.0 | 3.8 | N | 7.1 | 0.0 | 262.0 | ||||||||||
| 08:15 | 16.7 | 22.2 | 74.4 | 1014.9 | 5.6 | NNW | 7.8 | N | 0.0 | 609.1 | |||||||||
| 08:20 | 17.1 | 24.3 | 72.4 | 1014.8 | 4.4 | N | 7.8 | NNW | 0.0 | 683.2 | |||||||||
| 08:25 | 17.6 | 25.9 | 68.0 | 1014.8 | 1.5 | NNE | 4.2 | NNE | 0.0 | 662.1 | |||||||||
| 08:30 | 18.3 | 26.4 | 65.3 | 1014.8 | 2.7 | SSE | 6.7 | S | 0.0 | 602.6 | |||||||||
| 08:35 | 18.3 | 25.4 | 66.1 | 1014.8 | 1.9 | S | 6.4 | SSW | 0.0 | 642.3 | |||||||||
| 08:40 | 18.7 | 26.8 | 65.5 | 1014.9 | 6.8 | WSW | 13.1 | W | 0.0 | 658.8 | |||||||||
| 08:45 | 18.1 | 26.3 | 66.8 | 1014.9 | 8.7 | W | 15.5 | WNW | 0.0 | 445.7 | |||||||||
| 08:50 | 17.7 | 25.1 | 68.3 | 1014.9 | 6.1 | W | 18.4 | W | 0.0 | 437.7 | |||||||||
| 08:55 | 17.9 | 24.4 | 67.9 | 1014.8 | 5.7 | W | 9.9 | WNW | 0.0 | 394.9 | |||||||||
| 09:00 | 17.7 | 23.6 | 69.4 | 1014.8 | 3.8 | WSW | 9.0 | WNW | 0.0 | 425.9 | |||||||||
| 09:05 | 18.1 | 24.3 | 68.6 | 1014.8 | 6.3 | W | 12.0 | W | 0.0 | 566.4 | |||||||||
| 09:10 | 18.0 | 25.2 | 68.2 | 1014.8 | 6.9 | WSW | 13.8 | SW | 0.0 | 610.2 | |||||||||
| 09:15 | 18.8 | 25.8 | 64.4 | 1014.8 | 5.8 | SW | 13.8 | WSW | 0.0 | 513.9 | |||||||||
| 09:20 | 18.6 | 25.5 | 63.7 | 1014.8 | 4.2 | W | 9.2 | WSW | 0.0 | 495.0 | |||||||||
| 09:25 | 18.7 | 25.2 | 64.2 | 1014.8 | 5.6 | WSW | 15.2 | SSW | 0.0 | 447.1 | |||||||||
| 09:30 | 18.8 | 24.4 | 64.6 | 1014.9 | 8.8 | SW | 18.4 | SW | 0.0 | 437.9 | |||||||||
| 09:35 | 19.0 | 24.6 | 63.2 | 1014.9 | 6.8 | SSW | 13.4 | S | 0.0 | 819.0 | |||||||||
| 09:40 | 19.3 | 26.7 | 61.9 | 1014.8 | 6.3 | SW | 17.3 | SW | 0.0 | 780.4 | |||||||||
| 09:45 | 19.5 | 26.8 | 60.9 | 1014.8 | 7.0 | SW | 14.8 | W | 0.0 | 499.9 | |||||||||
| 09:50 | 19.7 | 27.1 | 61.5 | 1014.8 | 3.6 | SW | 10.9 | SSW | 0.0 | 925.0 | |||||||||
| 09:55 | 20.2 | 29.6 | 58.9 | 1014.7 | 4.4 | WSW | 11.3 | W | 0.0 | 712.9 | |||||||||
| 10:00 | 19.6 | 28.4 | 59.6 | 1014.6 | 6.0 | WNW | 10.9 | SW | 0.0 | 456.0 | |||||||||
| 10:05 | 19.5 | 26.7 | 62.0 | 1014.6 | 5.4 | SW | 10.9 | SW | 0.0 | 428.2 | |||||||||
| 10:10 | 19.5 | 25.3 | 61.2 | 1014.5 | 3.5 | SSW | 9.9 | SW | 0.0 | 398.4 | |||||||||
| 10:15 | 19.3 | 24.6 | 61.9 | 1014.5 | 3.8 | SW | 8.1 | SW | 0.0 | 412.8 | |||||||||
| 10:20 | 19.3 | 24.6 | 62.2 | 1014.5 | 6.8 | W | 11.6 | WNW | 0.0 | 508.2 | |||||||||
| 10:25 | 18.9 | 24.8 | 63.3 | 1014.5 | 6.0 | W | 10.9 | W | 0.0 | 424.9 | |||||||||
| 10:30 | 18.8 | 24.0 | 63.5 | 1014.5 | 6.7 | W | 12.0 | W | 0.0 | 273.7 | |||||||||
| 10:35 | 18.8 | 23.2 | 64.3 | 1014.5 | 3.4 | SW | 7.1 | WSW | 0.0 | 282.9 | |||||||||
| 10:40 | 19.1 | 23.7 | 64.1 | 1014.5 | 2.2 | SSW | 6.7 | WSW | 0.0 | 774.7 | |||||||||
| 10:45 | 19.8 | 25.8 | 59.2 | 1014.4 | 6.4 | SSE | 12.7 | SSW | 0.0 | 854.0 | |||||||||
| 10:50 | 20.6 | 27.5 | 57.1 | 1014.4 | 6.4 | S | 15.2 | S | 0.0 | 935.0 | |||||||||
| 10:55 | 20.6 | 27.7 | 56.1 | 1014.4 | 6.5 | S | 15.2 | SSE | 0.0 | 694.5 | |||||||||
| 11:00 | 20.9 | 27.7 | 55.7 | 1014.4 | 6.0 | SSE | 13.8 | S | 0.0 | 811.0 | |||||||||
| 11:05 | 20.9 | 27.7 | 55.1 | 1014.4 | 7.3 | SSE | 12.7 | SSE | 0.0 | 659.4 | |||||||||
| 11:10 | 20.8 | 27.1 | 55.9 | 1014.3 | 6.6 | SSE | 13.1 | SE | 0.0 | 652.0 | |||||||||
| 11:15 | 20.8 | 26.6 | 56.2 | 1014.2 | 7.4 | SE | 14.1 | SE | 0.0 | 498.6 | |||||||||
| 11:20 | 20.4 | 25.4 | 57.0 | 1014.1 | 7.1 | SSE | 16.2 | SSW | 0.0 | 422.8 | |||||||||
| 11:25 | 20.3 | 24.5 | 56.5 | 1014.1 | 7.5 | S | 16.2 | SSW | 0.0 | 391.8 | |||||||||
| 11:30 | 20.6 | 24.5 | 56.2 | 1014.0 | 4.9 | SSE | 10.2 | SSE | 0.0 | 354.1 | |||||||||
| 11:35 | 20.3 | 23.9 | 58.2 | 1013.9 | 8.4 | SSE | 17.6 | SSE | 0.0 | 302.6 | |||||||||
| 11:40 | 19.7 | 22.7 | 61.8 | 1013.9 | 9.0 | SSE | 16.9 | S | 0.0 | 296.2 | |||||||||
| 11:45 | 19.4 | 22.0 | 64.7 | 1013.9 | 11.0 | SSE | 20.8 | SSW | 0.0 | 389.4 | |||||||||
| 11:50 | 19.5 | 22.3 | 66.0 | 1013.8 | 9.7 | SSE | 18.7 | SE | 0.0 | 459.9 | |||||||||
| 11:55 | 19.2 | 22.2 | 66.6 | 1013.9 | 11.1 | SSE | 25.8 | SE | 0.0 | 401.2 | |||||||||
| 12:00 | 18.9 | 21.6 | 67.7 | 1013.9 | 10.4 | SSE | 19.1 | S | 0.0 | 321.0 | |||||||||
| 12:05 | 18.7 | 21.0 | 68.4 | 1014.0 | 9.8 | SSE | 19.8 | SSE | 0.0 | 298.8 | |||||||||
| 12:10 | 18.5 | 20.5 | 69.1 | 1014.0 | 11.3 | SSE | 22.9 | SSE | 0.0 | 226.5 | |||||||||
| 12:15 | 18.1 | 19.7 | 69.4 | 1013.9 | 9.9 | SSE | 20.5 | SSE | 0.0 | 172.7 | |||||||||
| 12:20 | 18.0 | 19.1 | 70.3 | 1013.9 | 7.7 | SSE | 15.5 | S | 0.0 | 139.2 | |||||||||
| 12:25 | 17.9 | 18.8 | 71.2 | 1013.8 | 7.5 | S | 15.2 | SSE | 0.0 | 146.6 | |||||||||
| 12:30 | 17.8 | 18.7 | 73.3 | 1013.8 | 6.9 | S | 14.1 | SSE | 0.0 | 196.3 | |||||||||
| 12:35 | 17.4 | 18.3 | 76.0 | 1013.8 | 8.4 | SSE | 18.0 | SSE | 0.0 | 251.2 | |||||||||
| 12:40 | 17.2 | 18.2 | 77.9 | 1013.6 | 6.5 | SSE | 13.4 | SSE | 0.0 | 280.0 | |||||||||
| 12:45 | 17.3 | 18.5 | 78.2 | 1013.5 | 6.1 | S | 13.4 | SW | 0.0 | 332.8 | |||||||||
| 12:50 | 17.6 | 19.2 | 77.3 | 1013.5 | 7.5 | S | 15.9 | S | 0.0 | 438.9 | |||||||||
| 12:55 | 17.9 | 20.3 | 75.9 | 1013.3 | 6.8 | SSE | 14.1 | WSW | 0.0 | 461.0 | |||||||||
| 13:00 | 17.9 | 20.5 | 72.6 | 1013.3 | 9.2 | SSE | 18.0 | SSE | 0.0 | 245.4 | |||||||||
| 13:05 | 18.0 | 20.2 | 70.6 | 1013.3 | 5.9 | SE | 14.1 | ESE | 0.0 | 275.5 | |||||||||
| 13:10 | 18.1 | 20.2 | 72.7 | 1013.4 | 9.4 | S | 18.4 | S | 0.0 | 206.9 | |||||||||
| 13:15 | 17.8 | 19.5 | 73.8 | 1013.5 | 10.0 | S | 18.4 | SSE | 0.0 | 154.7 | |||||||||
| 13:20 | 17.5 | 18.8 | 76.4 | 1013.6 | 10.5 | SSW | 21.9 | SSW | 0.0 | 160.0 | |||||||||
| 13:25 | 17.0 | 18.3 | 78.2 | 1013.6 | 10.7 | S | 25.8 | S | 0.0 | 194.1 | |||||||||
| 13:30 | 16.7 | 17.9 | 80.1 | 1013.6 | 10.5 | SSE | 23.3 | S | 0.0 | 183.7 | |||||||||
| 13:35 | 16.6 | 17.7 | 80.6 | 1013.5 | 9.6 | SSE | 26.1 | S | 0.0 | 172.2 | |||||||||
| 13:40 | 16.3 | 17.2 | 81.4 | 1013.4 | 12.9 | SSE | 31.8 | SSE | 0.0 | 128.1 | |||||||||
| 13:45 | 15.9 | 16.7 | 82.5 | 1013.4 | 10.5 | SSE | 22.9 | SSE | 0.0 | 137.2 | |||||||||
| 13:50 | 15.9 | 16.5 | 82.6 | 1013.5 | 10.2 | SSE | 22.6 | SSE | 0.0 | 146.2 | |||||||||
| 13:55 | 16.0 | 16.5 | 83.5 | 1013.6 | 8.3 | S | 18.0 | SE | 0.0 | 174.2 | |||||||||
| 14:00 | 16.0 | 16.6 | 83.3 | 1013.7 | 6.2 | SSE | 16.1 | SE | 0.0 | 135.5 | |||||||||
| 14:05 | 16.1 | 16.6 | 83.9 | 1013.6 | 6.2 | SE | 13.4 | SSE | 0.0 | 117.8 | |||||||||
| 14:10 | 15.8 | 16.3 | 84.9 | 1013.6 | 9.0 | SE | 19.1 | ESE | 0.0 | 69.7 | |||||||||
| 14:15 | 15.6 | 15.8 | 86.8 | 1013.7 | 7.9 | S | 20.5 | S | 0.0 | 34.5 | |||||||||
| 14:20 | 15.3 | 15.3 | 89.0 | 1013.9 | 7.2 | S | 18.4 | S | 0.1 | 48.3 | |||||||||
| 14:25 | 15.0 | 14.8 | 90.6 | 1013.9 | 6.8 | S | 16.2 | SSE | 0.8 | 54.3 | |||||||||
| 14:30 | 14.5 | 14.1 | 92.3 | 1014.0 | 8.2 | S | 21.5 | SE | 1.0 | 39.9 | |||||||||
| 14:35 | 14.3 | 13.7 | 93.8 | 1014.1 | 8.7 | SW | 18.7 | SSW | 0.6 | 22.4 | |||||||||
| 14:40 | 14.0 | 13.6 | 94.0 | 1014.2 | 10.4 | WSW | 20.8 | SW | 1.6 | 16.2 | |||||||||
| 14:45 | 13.6 | 13.1 | 94.2 | 1014.2 | 11.9 | SW | 29.3 | SW | 3.4 | 42.3 | |||||||||
| 14:50 | 13.2 | 12.8 | 93.7 | 1014.1 | 7.8 | SW | 18.4 | WSW | 1.1 | 69.0 | |||||||||
| 14:55 | 13.2 | 12.6 | 94.4 | 1014.1 | 7.3 | S | 13.1 | SSW | 0.7 | 77.6 | |||||||||
| 15:00 | 13.3 | 12.7 | 95.2 | 1013.9 | 6.2 | SE | 9.9 | SE | 0.3 | 107.8 | |||||||||
| 15:05 | 13.3 | 12.8 | 94.7 | 1013.7 | 4.0 | SE | 8.1 | ESE | 0.5 | 111.3 | |||||||||
| 15:10 | 13.2 | 12.7 | 93.7 | 1013.7 | 4.1 | SE | 9.2 | ESE | 0.0 | 97.8 | |||||||||
| 15:15 | 13.5 | 13.0 | 94.3 | 1013.6 | 4.1 | SE | 9.5 | SE | 0.0 | 136.2 | |||||||||
| 15:20 | 13.7 | 13.3 | 94.7 | 1013.6 | 6.7 | ESE | 11.3 | SE | 0.0 | 137.1 | |||||||||
| 15:25 | 13.8 | 13.3 | 94.7 | 1013.6 | 6.6 | ESE | 13.1 | SE | 0.1 | 125.6 | |||||||||
| 15:30 | 13.9 | 13.5 | 94.7 | 1013.6 | 5.0 | SE | 10.2 | SSE | 0.0 | 148.8 | |||||||||
| 15:35 | 13.8 | 13.5 | 94.2 | 1013.6 | 5.9 | SE | 11.6 | SE | 0.0 | 110.3 | |||||||||
| 15:40 | 13.9 | 13.5 | 94.0 | 1013.5 | 7.0 | SE | 12.7 | SSE | 0.0 | 138.1 | |||||||||
| 15:45 | 13.8 | 13.5 | 93.8 | 1013.4 | 6.2 | SE | 14.8 | SE | 0.0 | 150.5 | |||||||||
| 15:50 | 13.9 | 13.6 | 94.0 | 1013.4 | 4.8 | SSE | 9.5 | SSE | 0.1 | 168.2 | |||||||||
| 15:55 | 14.0 | 13.8 | 94.1 | 1013.5 | 5.1 | SSE | 9.9 | SSE | 0.0 | 180.4 | |||||||||
| 16:00 | 14.1 | 13.9 | 93.9 | 1013.4 | 5.9 | SE | 10.2 | SSE | 0.0 | 182.4 | |||||||||
| 16:05 | 14.2 | 14.0 | 93.4 | 1013.3 | 5.7 | SSE | 10.2 | ESE | 0.0 | 183.3 | |||||||||
| 16:10 | 14.5 | 14.3 | 93.7 | 1013.4 | 3.3 | S | 6.4 | SSE | 0.0 | 163.5 | |||||||||
| 16:15 | 14.5 | 14.6 | 93.6 | 1013.4 | 5.4 | S | 9.9 | SSW | 0.0 | 146.0 | |||||||||
| 16:20 | 14.4 | 14.4 | 93.4 | 1013.3 | 5.3 | SSE | 8.5 | SSE | 0.0 | 149.8 | |||||||||
| 16:25 | 14.4 | 14.4 | 93.5 | 1013.2 | 6.0 | SSE | 10.6 | SE | 0.0 | 157.9 | |||||||||
| 16:30 | 14.4 | 14.5 | 93.2 | 1013.2 | 6.0 | SSE | 10.2 | SSW | 0.0 | 160.4 | |||||||||
| 16:35 | 14.5 | 14.4 | 93.1 | 1013.2 | 5.5 | S | 11.6 | SSE | 0.0 | 160.1 | |||||||||
| 16:40 | 14.7 | 14.6 | 93.4 | 1013.2 | 4.5 | S | 9.5 | S | 0.0 | 158.5 | |||||||||
| 16:45 | 14.7 | 14.8 | 93.3 | 1013.1 | 4.2 | SSE | 8.8 | SSE | 0.0 | 176.7 | |||||||||
| 16:50 | 14.8 | 15.0 | 93.3 | 1013.1 | 2.7 | SSE | 8.1 | SE | 0.0 | 169.1 | |||||||||
| 16:55 | 14.9 | 15.1 | 93.1 | 1013.1 | 3.3 | SSE | 7.1 | S | 0.0 | 175.6 | |||||||||
| 17:00 | 14.9 | 15.1 | 92.6 | 1013.0 | 4.4 | SSE | 9.5 | SSE | 0.0 | 134.7 | |||||||||
| 17:05 | 14.8 | 14.8 | 92.4 | 1013.1 | 5.6 | SSE | 9.5 | SE | 0.0 | 116.2 | |||||||||
| 17:10 | 14.7 | 14.7 | 92.2 | 1013.0 | 3.5 | SSE | 9.2 | SE | 0.0 | 119.7 | |||||||||
| 17:15 | 14.6 | 14.5 | 92.4 | 1012.9 | 4.5 | S | 9.9 | SSE | 0.0 | 79.7 | |||||||||
| 17:20 | 14.6 | 14.4 | 92.9 | 1012.9 | 3.5 | SSW | 9.9 | SSW | 0.0 | 71.4 | |||||||||
| 17:25 | 14.5 | 14.2 | 93.0 | 1013.1 | 4.2 | S | 8.5 | SW | 0.0 | 44.2 | |||||||||
| 17:30 | 14.5 | 14.2 | 93.5 | 1013.0 | 2.4 | SSE | 7.1 | ESE | 0.0 | 56.9 | |||||||||
| 17:35 | 14.4 | 14.1 | 93.6 | 1013.0 | 1.8 | SSE | 5.6 | S | 0.0 | 56.1 | |||||||||
| 17:40 | 14.4 | 14.1 | 93.8 | 1013.0 | 2.3 | SSE | 5.6 | S | 0.0 | 75.8 | |||||||||
| 17:45 | 14.5 | 14.4 | 94.0 | 1012.9 | 2.2 | SSE | 5.3 | SSE | 0.0 | 136.4 | |||||||||
| 17:50 | 14.5 | 14.6 | 93.7 | 1012.7 | 0.8 | SE | 2.8 | SE | 0.0 | 115.1 | |||||||||
| 17:55 | 14.7 | 14.7 | 93.7 | 1012.7 | 1.7 | SSE | 6.0 | SE | 0.0 | 74.5 | |||||||||
| 18:00 | 14.6 | 14.4 | 93.2 | 1012.8 | 3.9 | S | 7.1 | S | 0.0 | 55.3 | |||||||||
| 18:05 | 14.5 | 14.2 | 93.1 | 1012.7 | 1.6 | SSE | 6.7 | SSW | 0.0 | 35.5 | |||||||||
| 18:10 | 14.4 | 13.9 | 93.1 | 1012.6 | 1.7 | SSE | 4.9 | SSE | 0.0 | 22.9 | |||||||||
| 18:15 | 14.3 | 13.6 | 93.2 | 1012.6 | 3.2 | SSE | 6.0 | S | 0.0 | 27.9 | |||||||||
| 18:20 | 14.2 | 13.5 | 93.8 | 1012.7 | 4.3 | SSE | 6.7 | SSE | 0.0 | 27.4 | |||||||||
| 18:25 | 14.0 | 13.3 | 94.3 | 1012.8 | 2.4 | S | 6.4 | SSE | 0.0 | 17.4 | |||||||||
| 18:30 | 14.0 | 13.3 | 94.6 | 1012.8 | 3.6 | SSE | 8.1 | SE | 0.0 | 13.2 | |||||||||
| 18:35 | 13.9 | 13.1 | 94.8 | 1012.8 | 3.9 | SSE | 7.4 | S | 0.0 | 9.8 | |||||||||
| 18:40 | 13.8 | 13.0 | 95.1 | 1012.9 | 3.6 | SSE | 6.7 | E | 0.0 | 6.2 | |||||||||
| 18:45 | 13.7 | 12.9 | 95.3 | 1013.0 | 4.5 | SSE | 9.5 | SSE | 0.0 | 3.4 | |||||||||
| 18:50 | 13.6 | 12.9 | 95.5 | 1013.1 | 4.1 | S | 9.5 | S | 0.0 | 2.0 | |||||||||
| 18:55 | 13.6 | 12.8 | 95.5 | 1013.3 | 5.9 | S | 12.0 | SSE | 0.0 | 1.0 | |||||||||
| 19:00 | 13.5 | 12.8 | 95.4 | 1013.3 | 5.9 | SSE | 13.1 | SSE | 0.0 | 0.6 | |||||||||
| 19:05 | 13.5 | 12.8 | 95.3 | 1013.3 | 4.7 | SSE | 11.3 | S | 0.0 | 0.4 | |||||||||
| 19:10 | 13.5 | 12.7 | 95.3 | 1013.4 | 3.2 | SSE | 10.9 | S | 0.0 | 0.2 | |||||||||
| 19:15 | 13.4 | 12.7 | 95.3 | 1013.4 | 4.1 | SE | 8.8 | SE | 0.0 | 0.1 | |||||||||
| 19:20 | 13.4 | 12.6 | 95.2 | 1013.3 | 4.8 | SE | 9.9 | SE | 0.0 | 0.1 | |||||||||
| 19:25 | 13.3 | 12.6 | 95.3 | 1013.4 | 4.9 | SE | 10.9 | SE | 0.0 | 0.0 | |||||||||
| 19:30 | 13.4 | 12.6 | 95.4 | 1013.5 | 4.5 | SE | 8.5 | SE | 0.0 | 0.1 | |||||||||
| 19:35 | 13.4 | 12.7 | 95.4 | 1013.5 | 4.0 | SE | 7.8 | SE | 0.0 | 0.1 | |||||||||
| 19:40 | 13.3 | 12.6 | 95.3 | 1013.4 | 5.0 | SE | 9.2 | SE | 0.0 | 0.0 | |||||||||
| 19:45 | 13.3 | 12.6 | 95.3 | 1013.4 | 7.1 | ESE | 11.3 | ESE | 0.0 | 0.0 | |||||||||
| 19:50 | 13.3 | 12.6 | 95.4 | 1013.5 | 5.9 | ESE | 10.6 | ESE | 0.0 | 0.1 | |||||||||
| 19:55 | 13.3 | 12.6 | 95.4 | 1013.5 | 6.6 | SE | 10.6 | SE | 0.0 | 0.1 | |||||||||
| 20:00 | 13.4 | 12.7 | 95.6 | 1013.7 | 5.0 | SSE | 12.0 | SSW | 0.2 | 0.1 | |||||||||
| 20:05 | 13.4 | 12.6 | 95.8 | 1013.8 | 6.0 | S | 15.5 | SW | 0.3 | 0.1 | |||||||||
| 20:10 | 13.3 | 12.5 | 95.9 | 1013.9 | 10.5 | SSW | 28.6 | SSW | 0.1 | 0.1 | |||||||||
| 20:15 | 12.8 | 12.2 | 94.5 | 1014.2 | 15.4 | SW | 29.6 | WSW | 0.2 | 0.0 | |||||||||
| 20:20 | 12.4 | 11.6 | 93.2 | 1014.4 | 10.7 | SSW | 22.2 | W | 0.0 | 0.1 | |||||||||
| 20:25 | 12.1 | 11.2 | 92.6 | 1014.6 | 7.4 | SW | 16.2 | SW | 0.0 | 0.0 | |||||||||
| 20:30 | 12.0 | 11.0 | 92.5 | 1014.7 | 4.4 | SSW | 9.9 | SW | 0.0 | 0.0 | |||||||||
| 20:35 | 11.9 | 10.8 | 92.3 | 1014.7 | 4.1 | SSE | 9.9 | SW | 0.0 | 0.1 | |||||||||
| 20:40 | 11.9 | 10.7 | 92.4 | 1014.6 | 4.2 | SE | 6.7 | SE | 0.0 | 0.1 | |||||||||
| 20:45 | 11.8 | 10.6 | 92.4 | 1014.5 | 4.8 | SE | 7.1 | SE | 0.0 | 0.0 | |||||||||
| 20:50 | 11.7 | 10.6 | 93.6 | 1014.4 | 3.4 | SE | 6.4 | ESE | 0.0 | 0.0 | |||||||||
| 20:55 | 11.5 | 10.4 | 93.8 | 1014.4 | 2.7 | SE | 4.6 | SSE | 0.0 | 0.0 | |||||||||
| 21:00 | 11.5 | 10.4 | 94.7 | 1014.4 | 5.9 | E | 8.8 | E | 0.0 | 0.1 | |||||||||
| 21:05 | 11.3 | 10.3 | 94.9 | 1014.2 | 7.4 | ESE | 12.0 | ESE | 0.0 | 0.0 | |||||||||
| 21:10 | 11.3 | 10.4 | 95.2 | 1014.1 | 7.3 | ESE | 12.0 | E | 0.0 | 0.1 | |||||||||
| 21:15 | 11.3 | 10.4 | 95.3 | 1014.0 | 6.3 | ESE | 10.6 | E | 0.0 | 0.0 | |||||||||
| 21:20 | 11.2 | 10.3 | 94.9 | 1013.9 | 7.7 | SE | 14.1 | SE | 0.0 | 0.0 | |||||||||
| 21:25 | 11.2 | 10.2 | 93.2 | 1013.8 | 3.4 | SE | 10.6 | ESE | 0.0 | 0.1 | |||||||||
| 21:30 | 11.4 | 10.2 | 91.5 | 1013.7 | 5.1 | SE | 8.8 | SSE | 0.0 | 0.0 | |||||||||
| 21:35 | 11.2 | 10.1 | 93.0 | 1013.6 | 3.1 | SSW | 7.1 | SSE | 0.0 | 0.1 | |||||||||
| Máxima | 20.9 | 29.6 | 96.9 | 1016.3 | 15.4 | SW | 31.8 | SSE | 3.4 | 935.0 | |||||||||
| Mínima | 11.2 | 10.1 | 55.1 | 1012.6 | |||||||||||||||
| Total | 11.1 | ||||||||||||||||||